createdAt,value
2022-11-20T00:00:51.983Z,100929.91
2022-11-20T00:03:18.680Z,100925.63
2022-11-20T00:05:45.397Z,100923.03
2022-11-20T00:08:12.108Z,100919.88
2022-11-20T00:10:39.056Z,100928.00
2022-11-20T00:13:06.032Z,100929.69
2022-11-20T00:15:32.820Z,100934.97
2022-11-20T00:17:59.573Z,100928.22
2022-11-20T00:20:26.236Z,100927.91
2022-11-20T00:22:52.861Z,100918.63
2022-11-20T00:25:19.518Z,100921.16
2022-11-20T00:27:46.336Z,100909.91
2022-11-20T00:30:15.022Z,100900.63
2022-11-20T00:32:41.956Z,100911.03
2022-11-20T00:35:08.760Z,100900.09
2022-11-20T00:37:35.414Z,100896.16
2022-11-20T00:40:02.108Z,100890.00
2022-11-20T00:42:34.066Z,100890.00
2022-11-20T00:45:00.751Z,100884.38
2022-11-20T00:47:27.347Z,100881.59
2022-11-20T00:49:54.005Z,100881.59
2022-11-20T00:52:20.685Z,100883.06
2022-11-20T00:54:47.289Z,100877.44
2022-11-20T00:57:13.935Z,100872.94
2022-11-20T00:59:40.552Z,100868.47
2022-11-20T01:02:07.285Z,100866.00
2022-11-20T01:04:33.916Z,100867.13
2022-11-20T01:07:00.632Z,100859.00
2022-11-20T01:09:27.303Z,100868.91
2022-11-20T01:11:54.044Z,100860.78
2022-11-20T01:14:20.977Z,100853.47
2022-11-20T01:16:49.512Z,100854.94
2022-11-20T01:19:20.767Z,100851.59
2022-11-20T01:21:49.118Z,100853.38
2022-11-20T01:24:16.538Z,100848.09
2022-11-20T01:26:44.173Z,100850.06
2022-11-20T01:29:14.742Z,100852.34
2022-11-20T01:31:41.435Z,100840.91
2022-11-20T01:34:10.962Z,100838.94
2022-11-20T01:36:38.608Z,100827.19
2022-11-20T01:39:06.740Z,100831.97
2022-11-20T01:41:52.756Z,100819.41
2022-11-20T01:44:21.332Z,100818.56
2022-11-20T01:46:57.518Z,100818.88
2022-11-20T01:49:27.432Z,100804.31
2022-11-20T01:51:56.155Z,100806.59
2022-11-20T01:54:38.621Z,100802.66
2022-11-20T01:57:06.112Z,100799.00
2022-11-20T01:59:32.780Z,100790.09
2022-11-20T02:01:59.535Z,100787.59
2022-11-20T02:04:26.762Z,100782.16
2022-11-20T02:06:56.619Z,100788.09
2022-11-20T02:09:23.643Z,100781.66
2022-11-20T02:11:50.460Z,100774.38
2022-11-20T02:14:17.208Z,100764.59
2022-11-20T02:16:48.054Z,100767.72
2022-11-20T02:19:24.554Z,100772.69
2022-11-20T02:22:01.115Z,100758.66
2022-11-20T02:24:27.942Z,100759.81
2022-11-20T02:26:56.200Z,100755.03
2022-11-20T02:29:28.073Z,100746.59
2022-11-20T02:31:56.386Z,100743.28
2022-11-20T02:34:22.990Z,100738.81
2022-11-20T02:36:50.782Z,100739.13
2022-11-20T02:39:20.462Z,100718.97
2022-11-20T02:41:47.365Z,100728.34
2022-11-20T02:44:13.988Z,100725.41
2022-11-20T02:46:40.587Z,100710.34
2022-11-20T02:49:07.279Z,100711.69
2022-11-20T02:51:33.947Z,100709.53
2022-11-20T02:54:00.770Z,100701.94
2022-11-20T02:56:27.420Z,100704.50
2022-11-20T02:58:54.084Z,100704.19
2022-11-20T03:01:20.779Z,100708.16
2022-11-20T03:03:49.630Z,100704.84
2022-11-20T03:06:17.288Z,100696.19
2022-11-20T03:08:43.894Z,100699.00
2022-11-20T03:11:10.528Z,100698.22
2022-11-20T03:13:37.326Z,100690.28
2022-11-20T03:16:14.229Z,100682.81
2022-11-20T03:18:41.286Z,100686.16
2022-11-20T03:21:08.449Z,100678.13
2022-11-20T03:23:35.288Z,100679.63
2022-11-20T03:26:22.150Z,100674.00
2022-11-20T03:29:09.017Z,100676.81
2022-11-20T03:31:41.580Z,100671.50
2022-11-20T03:34:09.141Z,100666.53
2022-11-20T03:36:35.815Z,100666.53
2022-11-20T03:39:02.393Z,100667.13
2022-11-20T03:41:30.473Z,100661.31
2022-11-20T03:43:58.804Z,100661.31
2022-11-20T03:46:26.103Z,100667.25
2022-11-20T03:48:53.293Z,100658.63
2022-11-20T03:51:21.609Z,100646.06
2022-11-20T03:53:48.729Z,100644.94
2022-11-20T03:56:16.148Z,100646.38
2022-11-20T03:58:42.858Z,100641.38
2022-11-20T04:01:15.142Z,100639.69
2022-11-20T04:03:42.264Z,100629.97
2022-11-20T04:06:11.732Z,100627.16
2022-11-20T04:08:38.696Z,100620.47
2022-11-20T04:11:11.420Z,100614.38
2022-11-20T04:13:38.424Z,100613.00
2022-11-20T04:16:05.986Z,100615.81
2022-11-20T04:18:35.492Z,100610.53
2022-11-20T04:21:02.154Z,100608.34
2022-11-20T04:23:29.107Z,100610.34
2022-11-20T04:25:55.881Z,100612.81
2022-11-20T04:28:22.488Z,100610.13
2022-11-20T04:30:49.083Z,100600.56
2022-11-20T04:33:15.694Z,100591.31
2022-11-20T04:35:42.366Z,100587.69
2022-11-20T04:38:08.979Z,100583.84
2022-11-20T04:40:35.675Z,100583.34
2022-11-20T04:43:02.251Z,100581.16
2022-11-20T04:45:28.893Z,100582.81
2022-11-20T04:47:55.519Z,100579.19
2022-11-20T04:50:22.197Z,100582.09
2022-11-20T04:52:51.939Z,100574.84
2022-11-20T04:55:18.586Z,100577.94
2022-11-20T04:57:45.163Z,100566.75
2022-11-20T05:00:12.224Z,100565.91
2022-11-20T05:02:38.920Z,100557.78
2022-11-20T05:05:05.794Z,100547.09
2022-11-20T05:07:32.482Z,100540.97
2022-11-20T05:09:59.156Z,100540.13
2022-11-20T05:12:25.808Z,100532.06
2022-11-20T05:14:52.551Z,100526.75
2022-11-20T05:17:19.130Z,100523.97
2022-11-20T05:19:48.366Z,100518.66
2022-11-20T05:22:18.558Z,100511.06
2022-11-20T05:24:45.210Z,100512.25
2022-11-20T05:27:11.859Z,100509.22
2022-11-20T05:29:38.430Z,100506.41
2022-11-20T05:32:06.970Z,100493.56
2022-11-20T05:34:33.578Z,100496.56
2022-11-20T05:37:00.232Z,100484.31
2022-11-20T05:39:26.928Z,100491.06
2022-11-20T05:42:13.471Z,100489.94
2022-11-20T05:44:40.429Z,100491.38
2022-11-20T05:47:07.187Z,100487.44
2022-11-20T05:49:34.060Z,100481.81
2022-11-20T05:52:00.720Z,100474.88
2022-11-20T05:54:27.488Z,100481.94
2022-11-20T05:56:54.061Z,100479.97
2022-11-20T05:59:20.865Z,100472.38
2022-11-20T06:01:47.577Z,100465.94
2022-11-20T06:04:14.211Z,100465.22
2022-11-20T06:06:40.871Z,100451.75
2022-11-20T06:09:07.464Z,100459.94
2022-11-20T06:11:34.016Z,100455.16
2022-11-20T06:14:00.612Z,100454.34
2022-11-20T06:16:27.345Z,100446.25
2022-11-20T06:18:53.986Z,100438.16
2022-11-20T06:21:21.775Z,100429.13
2022-11-20T06:23:49.181Z,100429.53
2022-11-20T06:26:22.884Z,100420.59
2022-11-20T06:28:49.954Z,100413.25
2022-11-20T06:31:17.821Z,100413.88
2022-11-20T06:33:44.701Z,100412.53
2022-11-20T06:36:12.568Z,100413.88
2022-11-20T06:38:39.748Z,100404.13
2022-11-20T06:41:11.521Z,100408.59
2022-11-20T06:43:38.180Z,100409.41
2022-11-20T06:46:05.733Z,100409.94
2022-11-20T06:48:32.842Z,100406.94
2022-11-20T06:50:59.816Z,100408.06
2022-11-20T06:53:27.923Z,100399.34
2022-11-20T06:55:57.339Z,100402.78
2022-11-20T06:58:23.947Z,100405.25
2022-11-20T07:00:50.710Z,100408.38
2022-11-20T07:03:17.318Z,100424.34
2022-11-20T07:05:44.023Z,100429.66
2022-11-20T07:08:10.615Z,100430.50
2022-11-20T07:10:37.450Z,100425.72
2022-11-20T07:13:04.096Z,100406.00
2022-11-20T07:15:30.852Z,100396.94
2022-11-20T07:17:59.733Z,100392.69
2022-11-20T07:20:26.490Z,100394.03
2022-11-20T07:22:57.006Z,100402.63
2022-11-20T07:25:24.065Z,100401.66
2022-11-20T07:27:50.643Z,100395.09
2022-11-20T07:30:17.614Z,100403.72
2022-11-20T07:32:54.977Z,100397.16
2022-11-20T07:35:22.020Z,100402.63
2022-11-20T07:37:49.710Z,100402.84
2022-11-20T07:40:16.745Z,100402.69
2022-11-20T07:42:56.719Z,100398.44
2022-11-20T07:45:24.448Z,100399.66
2022-11-20T07:47:51.200Z,100399.03
2022-11-20T07:50:18.288Z,100400.88
2022-11-20T07:52:51.816Z,100391.50
2022-11-20T07:55:18.537Z,100399.78
2022-11-20T07:57:45.272Z,100402.47
2022-11-20T08:00:12.771Z,100407.13
2022-11-20T08:02:40.514Z,100406.97
2022-11-20T08:05:07.423Z,100408.81
2022-11-20T08:07:40.786Z,100411.50
2022-11-20T08:10:08.263Z,100414.50
2022-11-20T08:12:59.127Z,100420.47
2022-11-20T08:15:25.775Z,100419.69
2022-11-20T08:18:15.547Z,100426.63
2022-11-20T08:20:39.447Z,100433.59
2022-11-20T08:23:07.623Z,100441.38
2022-11-20T08:25:35.436Z,100433.47
2022-11-20T08:28:10.280Z,100442.06
2022-11-20T08:30:38.788Z,100452.78
2022-11-20T08:33:12.125Z,100465.34
2022-11-20T08:35:39.187Z,100457.75
2022-11-20T08:38:06.756Z,100460.56
2022-11-20T08:40:33.735Z,100453.78
2022-11-20T08:43:01.411Z,100445.34
2022-11-20T08:45:33.462Z,100461.91
2022-11-20T08:48:02.095Z,100463.03
2022-11-20T08:50:28.811Z,100462.19
2022-11-20T08:53:02.809Z,100466.69
2022-11-20T08:55:29.403Z,100460.22
2022-11-20T08:57:56.029Z,100468.66
2022-11-20T09:00:24.684Z,100471.16
2022-11-20T09:03:02.328Z,100467.50
2022-11-20T09:05:29.145Z,100477.91
2022-11-20T09:07:59.167Z,100467.03
2022-11-20T09:10:26.288Z,100473.44
2022-11-20T09:12:58.495Z,100469.81
2022-11-20T09:15:25.695Z,100473.78
2022-11-20T09:17:59.411Z,100472.63
2022-11-20T09:20:26.922Z,100469.31
2022-11-20T09:23:02.938Z,100467.34
2022-11-20T09:25:29.586Z,100456.59
2022-11-20T09:27:56.844Z,100469.75
2022-11-20T09:30:23.496Z,100479.38
2022-11-20T09:33:00.397Z,100484.34
2022-11-20T09:35:27.017Z,100488.81
2022-11-20T09:38:00.138Z,100497.25
2022-11-20T09:40:39.145Z,100498.06
2022-11-20T09:43:25.792Z,100498.91
2022-11-20T09:46:14.961Z,100501.19
2022-11-20T09:49:04.222Z,100510.25
2022-11-20T09:51:30.868Z,100501.84
2022-11-20T09:54:06.845Z,100501.50
2022-11-20T09:56:35.116Z,100499.03
2022-11-20T09:59:12.475Z,100488.28
2022-11-20T10:01:51.471Z,100474.59
2022-11-20T10:04:19.294Z,100466.19
2022-11-20T10:07:17.152Z,100469.78
2022-11-20T10:09:44.433Z,100478.84
2022-11-20T10:12:26.511Z,100476.88
2022-11-20T10:15:03.577Z,100479.69
2022-11-20T10:17:48.906Z,100476.38
2022-11-20T10:20:24.757Z,100480.84
2022-11-20T10:23:10.054Z,100469.44
2022-11-20T10:25:51.726Z,100467.28
2022-11-20T10:28:36.878Z,100474.84
2022-11-20T10:31:11.621Z,100463.44
2022-11-20T10:34:04.908Z,100469.06
2022-11-20T10:36:29.259Z,100466.25
2022-11-20T10:39:00.457Z,100461.25
2022-11-20T10:41:38.400Z,100467.72
2022-11-20T10:44:06.749Z,100472.19
2022-11-20T10:46:46.380Z,100474.97
2022-11-20T10:49:17.002Z,100469.19
2022-11-20T10:51:43.589Z,100485.00
2022-11-20T10:54:23.681Z,100475.41
2022-11-20T10:56:54.729Z,100474.59
2022-11-20T10:59:24.610Z,100475.94
2022-11-20T11:01:51.423Z,100476.44
2022-11-20T11:04:36.849Z,100466.88
2022-11-20T11:07:11.509Z,100472.47
2022-11-20T11:09:44.175Z,100476.66
2022-11-20T11:12:14.605Z,100479.44
2022-11-20T11:14:45.390Z,100480.78
2022-11-20T11:17:23.536Z,100468.41
2022-11-20T11:20:07.822Z,100469.25
2022-11-20T11:22:35.750Z,100474.50
2022-11-20T11:25:02.501Z,100475.88
2022-11-20T11:27:29.309Z,100483.16
2022-11-20T11:30:13.716Z,100483.34
2022-11-20T11:32:55.921Z,100471.44
2022-11-20T11:35:29.300Z,100470.50
2022-11-20T11:38:03.940Z,100469.88
2022-11-20T11:40:33.071Z,100465.56
2022-11-20T11:43:05.310Z,100461.81
2022-11-20T11:45:32.087Z,100469.25
2022-11-20T11:48:01.510Z,100462.16
2022-11-20T11:50:29.504Z,100454.75
2022-11-20T11:52:56.134Z,100447.69
2022-11-20T11:55:34.950Z,100429.03
2022-11-20T11:58:10.749Z,100435.16
2022-11-20T12:00:39.757Z,100442.63
2022-11-20T12:03:10.431Z,100446.09
2022-11-20T12:05:37.076Z,100440.31
2022-11-20T12:08:12.161Z,100439.06
2022-11-20T12:10:48.353Z,100434.13
2022-11-20T12:13:35.266Z,100437.59
2022-11-20T12:16:04.188Z,100448.38
2022-11-20T12:18:31.805Z,100446.25
2022-11-20T12:21:18.644Z,100442.78
2022-11-20T12:24:03.934Z,100443.47
2022-11-20T12:26:44.679Z,100452.88
2022-11-20T12:29:18.003Z,100455.88
2022-11-20T12:32:02.725Z,100448.44
2022-11-20T12:34:35.133Z,100454.56
2022-11-20T12:37:13.829Z,100458.69
2022-11-20T12:39:43.700Z,100455.72
2022-11-20T12:42:37.330Z,100461.88
2022-11-20T12:45:24.876Z,100464.84
2022-11-20T12:48:09.532Z,100464.19
2022-11-20T12:51:14.074Z,100456.25
2022-11-20T12:54:00.351Z,100453.44
2022-11-20T12:56:30.024Z,100453.44
2022-11-20T12:59:07.984Z,100468.16
2022-11-20T13:01:51.521Z,100462.03
2022-11-20T13:04:21.150Z,100467.97
2022-11-20T13:06:47.978Z,100469.16
2022-11-20T13:09:16.703Z,100465.50
2022-11-20T13:11:46.291Z,100470.31
2022-11-20T13:14:18.809Z,100474.25
2022-11-20T13:17:06.221Z,100471.44
2022-11-20T13:19:33.642Z,100481.03
2022-11-20T13:22:00.371Z,100491.44
2022-11-20T13:24:28.847Z,100489.31
2022-11-20T13:27:01.861Z,100486.50
2022-11-20T13:29:28.625Z,100484.84
2022-11-20T13:32:07.921Z,100486.50
2022-11-20T13:34:37.260Z,100483.16
2022-11-20T13:37:05.086Z,100495.25
2022-11-20T13:39:33.071Z,100504.50
2022-11-20T13:42:01.444Z,100502.03
2022-11-20T13:44:30.658Z,100497.22
2022-11-20T13:46:57.262Z,100499.25
2022-11-20T13:49:27.154Z,100503.50
2022-11-20T13:52:00.653Z,100492.94
2022-11-20T13:54:27.256Z,100483.66
2022-11-20T13:57:15.205Z,100480.53
2022-11-20T13:59:49.116Z,100468.78
2022-11-20T14:02:17.635Z,100453.41
2022-11-20T14:04:46.081Z,100450.25
2022-11-20T14:07:13.324Z,100446.59
2022-11-20T14:09:40.022Z,100440.16
2022-11-20T14:12:15.386Z,100444.78
2022-11-20T14:14:49.177Z,100447.59
2022-11-20T14:17:23.529Z,100446.75
2022-11-20T14:19:51.897Z,100443.16
2022-11-20T14:22:21.631Z,100431.38
2022-11-20T14:24:48.700Z,100435.03
2022-11-20T14:27:16.715Z,100428.56
2022-11-20T14:29:44.540Z,100442.78
2022-11-20T14:32:11.486Z,100444.59
2022-11-20T14:34:42.975Z,100442.09
2022-11-20T14:37:16.762Z,100454.84
2022-11-20T14:39:49.051Z,100465.56
2022-11-20T14:42:17.302Z,100463.56
2022-11-20T14:44:44.182Z,100475.63
2022-11-20T14:47:13.091Z,100470.97
2022-11-20T14:49:40.000Z,100468.69
2022-11-20T14:52:12.780Z,100477.25
2022-11-20T14:54:46.746Z,100474.22
2022-11-20T14:57:24.121Z,100469.56
2022-11-20T14:59:50.756Z,100473.19
2022-11-20T15:02:18.687Z,100471.22
2022-11-20T15:04:52.372Z,100463.44
2022-11-20T15:07:35.928Z,100464.91
2022-11-20T15:10:07.466Z,100470.03
2022-11-20T15:12:36.045Z,100468.69
2022-11-20T15:15:03.578Z,100465.41
2022-11-20T15:17:31.496Z,100460.91
2022-11-20T15:19:58.092Z,100457.41
2022-11-20T15:22:24.661Z,100453.47
2022-11-20T15:24:51.344Z,100455.78
2022-11-20T15:27:17.956Z,100445.69
2022-11-20T15:29:44.667Z,100445.19
2022-11-20T15:32:13.530Z,100448.00
2022-11-20T15:34:40.559Z,100452.28
2022-11-20T15:37:07.246Z,100447.81
2022-11-20T15:39:33.844Z,100451.28
2022-11-20T15:42:00.566Z,100462.50
2022-11-20T15:44:27.292Z,100458.03
2022-11-20T15:46:53.995Z,100444.81
2022-11-20T15:49:20.587Z,100463.34
2022-11-20T15:51:53.253Z,100459.50
2022-11-20T15:54:21.671Z,100450.25
2022-11-20T15:56:49.656Z,100455.03
2022-11-20T15:59:16.300Z,100457.84
2022-11-20T16:01:43.475Z,100465.56
2022-11-20T16:04:14.211Z,100462.78
2022-11-20T16:06:40.811Z,100458.00
2022-11-20T16:09:07.533Z,100456.16
2022-11-20T16:11:34.580Z,100459.59
2022-11-20T16:14:19.941Z,100462.19
2022-11-20T16:16:46.661Z,100455.75
2022-11-20T16:19:14.157Z,100468.66
2022-11-20T16:21:42.649Z,100467.81
2022-11-20T16:24:11.926Z,100462.03
2022-11-20T16:26:38.572Z,100473.25
2022-11-20T16:29:06.282Z,100467.94
2022-11-20T16:31:33.457Z,100469.44
2022-11-20T16:34:01.292Z,100465.28
2022-11-20T16:36:28.741Z,100469.56
2022-11-20T16:38:56.200Z,100473.84
2022-11-20T16:41:22.923Z,100466.88
2022-11-20T16:43:50.565Z,100453.97
2022-11-20T16:46:18.405Z,100479.06
2022-11-20T16:48:45.060Z,100484.16
2022-11-20T16:51:12.629Z,100487.59
2022-11-20T16:53:39.722Z,100483.94
2022-11-20T16:56:13.761Z,100480.63
2022-11-20T16:58:40.348Z,100482.31
2022-11-20T17:01:11.126Z,100488.50
2022-11-20T17:03:38.624Z,100480.75
2022-11-20T17:06:16.224Z,100493.09
2022-11-20T17:08:43.003Z,100488.63
2022-11-20T17:11:10.767Z,100496.56
2022-11-20T17:13:39.968Z,100487.13
2022-11-20T17:16:08.551Z,100495.84
2022-11-20T17:18:35.250Z,100497.31
2022-11-20T17:21:05.515Z,100504.38
2022-11-20T17:23:36.350Z,100508.31
2022-11-20T17:26:08.993Z,100503.88
2022-11-20T17:28:36.116Z,100513.72
2022-11-20T17:31:03.940Z,100512.91
2022-11-20T17:33:30.584Z,100518.84
2022-11-20T17:35:57.392Z,100515.00
2022-11-20T17:38:24.490Z,100506.59
2022-11-20T17:40:51.203Z,100517.59
2022-11-20T17:43:18.252Z,100525.19
2022-11-20T17:45:45.221Z,100525.50
2022-11-20T17:48:12.461Z,100534.22
2022-11-20T17:50:39.123Z,100550.22
2022-11-20T17:53:07.378Z,100547.75
2022-11-20T17:55:55.769Z,100540.78
2022-11-20T17:58:23.554Z,100555.63
2022-11-20T18:00:51.697Z,100559.91
2022-11-20T18:03:18.284Z,100575.06
2022-11-20T18:05:44.899Z,100568.63
2022-11-20T18:08:11.468Z,100567.78
2022-11-20T18:10:38.676Z,100568.91
2022-11-20T18:13:05.272Z,100569.25
2022-11-20T18:15:31.828Z,100563.66
2022-11-20T18:17:58.455Z,100567.88
2022-11-20T18:20:31.089Z,100568.19
2022-11-20T18:23:00.299Z,100567.38
2022-11-20T18:25:26.936Z,100569.66
2022-11-20T18:27:53.523Z,100576.41
2022-11-20T18:30:20.170Z,100575.25
2022-11-20T18:32:51.042Z,100583.69
2022-11-20T18:35:17.625Z,100580.03
2022-11-20T18:37:44.239Z,100575.47
2022-11-20T18:40:11.295Z,100576.50
2022-11-20T18:42:56.782Z,100587.41
2022-11-20T18:45:23.513Z,100581.81
2022-11-20T18:47:50.172Z,100584.31
2022-11-20T18:50:16.838Z,100583.97
2022-11-20T18:52:52.891Z,100577.22
2022-11-20T18:55:19.500Z,100584.19
2022-11-20T18:57:46.189Z,100588.34
2022-11-20T19:00:13.096Z,100590.84
2022-11-20T19:02:50.164Z,100591.88
2022-11-20T19:05:17.128Z,100592.38
2022-11-20T19:07:43.921Z,100601.00
2022-11-20T19:10:10.901Z,100599.53
2022-11-20T19:12:37.530Z,100603.38
2022-11-20T19:15:04.412Z,100604.72
2022-11-20T19:17:32.636Z,100602.44
2022-11-20T19:20:00.379Z,100608.22
2022-11-20T19:22:27.051Z,100603.97
2022-11-20T19:24:53.627Z,100602.22
2022-11-20T19:27:20.389Z,100598.75
2022-11-20T19:29:46.976Z,100609.06
2022-11-20T19:32:13.610Z,100604.81
2022-11-20T19:34:40.325Z,100600.53
2022-11-20T19:37:07.225Z,100608.31
2022-11-20T19:39:35.702Z,100616.13
2022-11-20T19:42:02.812Z,100618.28
2022-11-20T19:44:29.389Z,100623.25
2022-11-20T19:46:57.460Z,100617.34
2022-11-20T19:49:24.252Z,100628.75
2022-11-20T19:51:51.410Z,100626.47
2022-11-20T19:54:18.302Z,100628.16
2022-11-20T19:56:45.730Z,100635.91
2022-11-20T19:59:12.524Z,100637.25
2022-11-20T20:01:39.650Z,100646.19
2022-11-20T20:04:07.225Z,100650.69
2022-11-20T20:06:35.501Z,100648.38
2022-11-20T20:09:05.566Z,100634.84
2022-11-20T20:11:33.362Z,100638.50
2022-11-20T20:14:04.039Z,100635.34
2022-11-20T20:16:30.969Z,100633.06
2022-11-20T20:18:58.538Z,100627.44
2022-11-20T20:21:25.240Z,100641.19
2022-11-20T20:23:55.763Z,100645.97
2022-11-20T20:26:23.834Z,100645.97
2022-11-20T20:28:50.906Z,100648.44
2022-11-20T20:31:18.914Z,100644.00
2022-11-20T20:33:45.759Z,100668.09
2022-11-20T20:36:13.304Z,100665.81
2022-11-20T20:38:40.079Z,100670.28
2022-11-20T20:41:06.675Z,100662.34
2022-11-20T20:43:53.164Z,100664.84
2022-11-20T20:46:20.012Z,100668.16
2022-11-20T20:48:51.476Z,100657.75
2022-11-20T20:51:20.897Z,100667.53
2022-11-20T20:53:47.564Z,100674.84
2022-11-20T20:56:14.211Z,100668.88
2022-11-20T20:58:40.886Z,100667.72
2022-11-20T21:01:08.951Z,100672.22
2022-11-20T21:03:35.951Z,100671.06
2022-11-20T21:06:03.776Z,100673.53
2022-11-20T21:08:30.363Z,100680.81
2022-11-20T21:11:16.661Z,100695.69
2022-11-20T21:13:43.983Z,100696.19
2022-11-20T21:16:11.675Z,100697.88
2022-11-20T21:18:38.737Z,100692.25
2022-11-20T21:21:24.796Z,100697.88
2022-11-20T21:23:53.579Z,100690.28
2022-11-20T21:26:21.161Z,100677.91
2022-11-20T21:28:47.852Z,100675.09
2022-11-20T21:31:15.769Z,100666.97
2022-11-20T21:33:47.441Z,100667.22
2022-11-20T21:36:15.237Z,100662.66
2022-11-20T21:38:42.128Z,100653.56
2022-11-20T21:41:32.613Z,100656.44
2022-11-20T21:44:32.059Z,100647.38
2022-11-20T21:47:19.800Z,100649.78
2022-11-20T21:50:06.628Z,100652.47
2022-11-20T21:52:38.988Z,100656.78
2022-11-20T21:55:05.847Z,100658.44
2022-11-20T21:57:35.534Z,100650.53
2022-11-20T22:00:02.682Z,100646.22
2022-11-20T22:02:29.297Z,100646.75
2022-11-20T22:04:56.078Z,100629.56
2022-11-20T22:07:22.788Z,100621.34
2022-11-20T22:09:49.540Z,100631.41
2022-11-20T22:12:16.190Z,100635.88
2022-11-20T22:14:42.811Z,100631.09
2022-11-20T22:17:13.408Z,100625.47
2022-11-20T22:19:40.003Z,100631.91
2022-11-20T22:22:06.684Z,100631.25
2022-11-20T22:24:33.580Z,100619.19
2022-11-20T22:27:00.155Z,100617.22
2022-11-20T22:29:26.742Z,100614.09
2022-11-20T22:31:53.481Z,100613.56
2022-11-20T22:34:20.350Z,100609.97
2022-11-20T22:36:47.138Z,100598.72
2022-11-20T22:39:13.735Z,100589.75
2022-11-20T22:41:40.390Z,100597.03
2022-11-20T22:44:07.972Z,100588.94
2022-11-20T22:46:35.897Z,100586.78
2022-11-20T22:49:04.005Z,100574.69
2022-11-20T22:51:31.947Z,100572.19
2022-11-20T22:53:58.500Z,100579.31
2022-11-20T22:56:25.371Z,100573.16
2022-11-20T22:58:52.511Z,100562.75
2022-11-20T23:01:20.513Z,100571.19
2022-11-20T23:03:48.480Z,100575.16
2022-11-20T23:06:15.889Z,100591.53
2022-11-20T23:08:42.730Z,100600.91
2022-11-20T23:11:11.029Z,100606.53
2022-11-20T23:13:37.862Z,100603.53
2022-11-20T23:16:06.292Z,100621.38
2022-11-20T23:18:35.483Z,100618.88
2022-11-20T23:21:18.030Z,100614.19
2022-11-20T23:23:48.215Z,100612.03
2022-11-20T23:26:15.578Z,100607.84
2022-11-20T23:28:42.968Z,100606.72
2022-11-20T23:31:10.636Z,100607.22
2022-11-20T23:33:37.912Z,100613.03
2022-11-20T23:36:04.925Z,100605.13
2022-11-20T23:38:31.543Z,100591.59
2022-11-20T23:40:58.147Z,100591.25
2022-11-20T23:43:25.298Z,100582.53
2022-11-20T23:45:53.094Z,100573.44
2022-11-20T23:48:20.372Z,100576.78
2022-11-20T23:50:47.128Z,100570.50
2022-11-20T23:53:14.669Z,100571.84
2022-11-20T23:55:51.760Z,100568.69
2022-11-20T23:58:18.785Z,100563.59
